createdAt,value
2019-05-19T00:00:26.379Z,15.67
2019-05-19T00:02:55.754Z,14.80
2019-05-19T00:05:24.901Z,14.93
2019-05-19T00:07:54.011Z,12.83
2019-05-19T00:10:22.792Z,15.80
2019-05-19T00:12:51.975Z,14.13
2019-05-19T00:15:20.829Z,13.23
2019-05-19T00:17:49.677Z,12.97
2019-05-19T00:20:18.561Z,13.80
2019-05-19T00:22:47.338Z,14.20
2019-05-19T00:25:16.197Z,12.13
2019-05-19T00:27:45.319Z,12.83
2019-05-19T00:30:15.164Z,12.60
2019-05-19T00:32:44.077Z,13.30
2019-05-19T00:35:13.446Z,14.50
2019-05-19T00:37:42.288Z,15.40
2019-05-19T00:40:11.262Z,15.90
2019-05-19T00:42:40.022Z,15.93
2019-05-19T00:45:09.778Z,16.50
2019-05-19T00:47:38.923Z,16.17
2019-05-19T00:50:08.762Z,17.73
2019-05-19T00:52:37.535Z,15.00
2019-05-19T00:55:06.583Z,14.93
2019-05-19T00:57:36.372Z,14.47
2019-05-19T01:00:06.304Z,14.90
2019-05-19T01:02:35.747Z,16.70
2019-05-19T01:05:04.998Z,16.10
2019-05-19T01:07:33.784Z,14.87
2019-05-19T01:10:02.574Z,14.80
2019-05-19T01:12:31.366Z,14.33
2019-05-19T01:15:00.410Z,14.50
2019-05-19T01:17:29.203Z,14.33
2019-05-19T01:19:58.067Z,13.97
2019-05-19T01:22:27.399Z,13.20
2019-05-19T01:24:56.259Z,12.67
2019-05-19T01:27:25.410Z,13.30
2019-05-19T01:29:54.258Z,12.90
2019-05-19T01:32:23.038Z,12.13
2019-05-19T01:34:52.082Z,13.30
2019-05-19T01:37:20.875Z,14.00
2019-05-19T01:39:49.947Z,15.53
2019-05-19T01:42:19.002Z,13.43
2019-05-19T01:44:47.795Z,12.97
2019-05-19T01:47:16.932Z,13.60
2019-05-19T01:49:45.718Z,15.23
2019-05-19T01:52:14.497Z,14.60
2019-05-19T01:54:43.333Z,14.63
2019-05-19T01:57:12.126Z,15.43
2019-05-19T01:59:40.907Z,14.10
2019-05-19T02:02:09.700Z,14.20
2019-05-19T02:04:38.463Z,14.30
2019-05-19T02:07:07.264Z,15.27
2019-05-19T02:09:36.030Z,15.30
2019-05-19T02:12:05.266Z,16.30
2019-05-19T02:14:34.045Z,15.50
2019-05-19T02:17:03.116Z,16.50
2019-05-19T02:19:32.631Z,13.20
2019-05-19T02:22:01.825Z,13.07
2019-05-19T02:24:30.597Z,13.97
2019-05-19T02:26:59.451Z,14.83
2019-05-19T02:29:28.223Z,15.03
2019-05-19T02:31:57.292Z,13.93
2019-05-19T02:34:26.069Z,13.17
2019-05-19T02:36:54.975Z,12.07
2019-05-19T02:39:23.886Z,13.73
2019-05-19T02:41:54.272Z,13.80
2019-05-19T02:44:24.807Z,13.63
2019-05-19T02:46:54.883Z,14.57
2019-05-19T02:49:27.007Z,14.43
2019-05-19T02:51:57.805Z,13.97
2019-05-19T02:54:28.268Z,13.67
2019-05-19T02:56:57.879Z,11.70
2019-05-19T02:59:27.700Z,15.10
2019-05-19T03:02:05.541Z,14.40
2019-05-19T03:04:34.418Z,13.77
2019-05-19T03:07:03.271Z,13.90
2019-05-19T03:09:32.111Z,14.30
2019-05-19T03:12:00.925Z,15.00
2019-05-19T03:14:30.061Z,14.13
2019-05-19T03:16:59.259Z,15.27
2019-05-19T03:19:28.457Z,15.00
2019-05-19T03:21:57.250Z,15.93
2019-05-19T03:24:26.166Z,16.33
2019-05-19T03:26:54.963Z,16.27
2019-05-19T03:29:28.324Z,17.40
2019-05-19T03:32:16.289Z,17.60
2019-05-19T03:34:45.075Z,16.43
2019-05-19T03:37:13.886Z,16.90
2019-05-19T03:39:42.949Z,15.20
2019-05-19T03:42:12.348Z,16.47
2019-05-19T03:44:41.117Z,16.20
2019-05-19T03:47:10.052Z,16.60
2019-05-19T03:49:38.826Z,17.90
2019-05-19T03:52:07.672Z,15.73
2019-05-19T03:54:36.468Z,16.23
2019-05-19T03:57:05.594Z,16.40
2019-05-19T03:59:34.374Z,17.00
2019-05-19T04:02:03.181Z,17.40
2019-05-19T04:04:32.265Z,16.03
2019-05-19T04:07:01.068Z,19.33
2019-05-19T04:09:29.840Z,16.80
2019-05-19T04:11:58.713Z,16.10
2019-05-19T04:14:27.500Z,18.13
2019-05-19T04:16:56.469Z,15.80
2019-05-19T04:19:25.644Z,17.23
2019-05-19T04:21:54.455Z,17.60
2019-05-19T04:24:23.271Z,17.57
2019-05-19T04:26:52.109Z,17.60
2019-05-19T04:29:21.238Z,16.63
2019-05-19T04:31:50.048Z,18.23
2019-05-19T04:34:18.885Z,16.80
2019-05-19T04:36:47.977Z,16.83
2019-05-19T04:39:16.930Z,16.90
2019-05-19T04:41:45.989Z,19.37
2019-05-19T04:44:14.788Z,17.20
2019-05-19T04:46:43.632Z,18.27
2019-05-19T04:49:12.424Z,17.70
2019-05-19T04:51:41.204Z,19.70
2019-05-19T04:54:10.320Z,20.40
2019-05-19T04:56:39.640Z,19.87
2019-05-19T04:59:08.434Z,18.97
2019-05-19T05:01:37.266Z,19.90
2019-05-19T05:04:06.128Z,18.47
2019-05-19T05:06:35.190Z,17.87
2019-05-19T05:09:04.814Z,19.07
2019-05-19T05:11:34.017Z,17.90
2019-05-19T05:14:02.890Z,16.90
2019-05-19T05:16:32.077Z,16.63
2019-05-19T05:19:01.187Z,17.63
2019-05-19T05:21:30.011Z,16.77
2019-05-19T05:23:58.809Z,17.50
2019-05-19T05:26:27.664Z,16.60
2019-05-19T05:28:56.747Z,17.43
2019-05-19T05:31:25.845Z,15.60
2019-05-19T05:33:54.966Z,15.20
2019-05-19T05:36:24.075Z,15.60
2019-05-19T05:38:52.899Z,15.80
2019-05-19T05:41:21.678Z,15.97
2019-05-19T05:43:50.817Z,16.87
2019-05-19T05:46:19.605Z,14.97
2019-05-19T05:48:48.703Z,15.33
2019-05-19T05:51:17.802Z,14.03
2019-05-19T05:53:46.600Z,15.17
2019-05-19T05:56:15.676Z,15.20
2019-05-19T05:58:44.704Z,15.27
2019-05-19T06:01:13.511Z,14.27
2019-05-19T06:03:42.300Z,15.10
2019-05-19T06:06:11.439Z,14.40
2019-05-19T06:08:40.251Z,15.03
2019-05-19T06:11:09.356Z,15.57
2019-05-19T06:13:38.544Z,14.53
2019-05-19T06:16:07.485Z,14.77
2019-05-19T06:18:36.286Z,14.90
2019-05-19T06:21:05.318Z,15.30
2019-05-19T06:23:34.098Z,16.00
2019-05-19T06:26:02.890Z,16.03
2019-05-19T06:28:32.202Z,15.97
2019-05-19T06:31:00.989Z,17.13
2019-05-19T06:33:29.785Z,17.03
2019-05-19T06:35:58.678Z,15.53
2019-05-19T06:38:27.464Z,17.73
2019-05-19T06:40:56.303Z,18.83
2019-05-19T06:43:25.110Z,19.47
2019-05-19T06:45:54.359Z,19.43
2019-05-19T06:48:23.193Z,21.80
2019-05-19T06:50:52.472Z,21.93
2019-05-19T06:53:21.647Z,22.23
2019-05-19T06:55:50.803Z,21.40
2019-05-19T06:58:19.594Z,22.47
2019-05-19T07:00:48.727Z,23.00
2019-05-19T07:03:17.822Z,22.80
2019-05-19T07:05:46.598Z,23.47
2019-05-19T07:08:15.701Z,19.60
2019-05-19T07:10:44.538Z,20.83
2019-05-19T07:13:13.350Z,20.97
2019-05-19T07:15:42.222Z,21.23
2019-05-19T07:18:10.979Z,19.73
2019-05-19T07:20:39.767Z,22.20
2019-05-19T07:23:09.158Z,21.20
2019-05-19T07:25:38.289Z,21.03
2019-05-19T07:28:07.124Z,23.47
2019-05-19T07:30:35.933Z,22.80
2019-05-19T07:33:04.776Z,24.00
2019-05-19T07:35:33.627Z,22.97
2019-05-19T07:38:02.460Z,22.80
2019-05-19T07:40:31.286Z,22.43
2019-05-19T07:43:00.159Z,22.20
2019-05-19T07:45:29.082Z,24.40
2019-05-19T07:47:57.852Z,23.40
2019-05-19T07:50:26.644Z,24.27
2019-05-19T07:52:55.708Z,23.20
2019-05-19T07:55:24.859Z,23.73
2019-05-19T07:57:53.628Z,24.00
2019-05-19T08:00:22.431Z,24.67
2019-05-19T08:02:51.202Z,23.27
2019-05-19T08:05:20.365Z,23.80
2019-05-19T08:07:49.132Z,25.37
2019-05-19T08:10:18.060Z,25.13
2019-05-19T08:12:46.963Z,22.73
2019-05-19T08:15:15.891Z,22.87
2019-05-19T08:17:44.654Z,22.10
2019-05-19T08:20:15.055Z,22.67
2019-05-19T08:22:44.123Z,22.57
2019-05-19T08:25:13.006Z,21.73
2019-05-19T08:27:42.412Z,23.03
2019-05-19T08:30:11.641Z,20.10
2019-05-19T08:32:40.444Z,21.93
2019-05-19T08:35:09.434Z,21.20
2019-05-19T08:37:38.504Z,22.97
2019-05-19T08:40:07.748Z,22.33
2019-05-19T08:42:36.597Z,20.17
2019-05-19T08:45:06.126Z,22.90
2019-05-19T08:47:35.285Z,20.20
2019-05-19T08:50:04.759Z,22.00
2019-05-19T08:52:33.575Z,20.73
2019-05-19T08:55:02.779Z,21.37
2019-05-19T08:57:31.891Z,23.87
2019-05-19T09:00:00.773Z,20.37
2019-05-19T09:02:29.546Z,22.30
2019-05-19T09:04:58.676Z,20.63
2019-05-19T09:07:27.505Z,22.00
2019-05-19T09:09:56.291Z,21.17
2019-05-19T09:12:25.336Z,21.13
2019-05-19T09:14:54.112Z,22.97
2019-05-19T09:17:22.898Z,21.90
2019-05-19T09:19:51.669Z,21.23
2019-05-19T09:22:20.739Z,21.97
2019-05-19T09:24:49.509Z,21.47
2019-05-19T09:27:18.586Z,20.90
2019-05-19T09:29:48.036Z,21.80
2019-05-19T09:32:16.884Z,21.87
2019-05-19T09:34:45.646Z,21.33
2019-05-19T09:37:14.481Z,20.43
2019-05-19T09:39:43.259Z,19.67
2019-05-19T09:42:12.108Z,20.30
2019-05-19T09:44:40.934Z,18.50
2019-05-19T09:47:10.051Z,23.40
2019-05-19T09:49:39.137Z,21.63
2019-05-19T09:52:08.328Z,21.77
2019-05-19T09:54:44.666Z,21.70
2019-05-19T09:57:07.838Z,20.63
2019-05-19T09:59:36.599Z,21.13
2019-05-19T10:02:05.482Z,22.67
2019-05-19T10:04:34.255Z,23.27
2019-05-19T10:07:04.060Z,24.90
2019-05-19T10:10:08.847Z,24.10
2019-05-19T10:12:37.949Z,21.90
2019-05-19T10:15:07.439Z,22.60
2019-05-19T10:17:36.294Z,21.87
2019-05-19T10:20:07.448Z,23.07
2019-05-19T10:22:36.589Z,24.60
2019-05-19T10:25:20.974Z,22.97
2019-05-19T10:27:37.601Z,25.47
2019-05-19T10:30:07.423Z,21.53
2019-05-19T10:32:36.301Z,25.80
2019-05-19T10:35:06.961Z,24.77
2019-05-19T10:37:35.846Z,25.53
2019-05-19T10:40:06.137Z,23.20
2019-05-19T10:42:35.202Z,23.07
2019-05-19T10:45:05.427Z,25.70
2019-05-19T10:47:34.575Z,22.77
2019-05-19T10:50:03.364Z,23.97
2019-05-19T10:52:32.234Z,21.47
2019-05-19T10:55:01.070Z,24.57
2019-05-19T10:57:30.260Z,23.17
2019-05-19T11:00:00.132Z,22.97
2019-05-19T11:02:29.273Z,24.53
2019-05-19T11:04:58.076Z,24.23
2019-05-19T11:07:26.901Z,22.57
2019-05-19T11:09:56.003Z,20.90
2019-05-19T11:12:25.509Z,21.40
2019-05-19T11:14:54.322Z,19.70
2019-05-19T11:17:23.179Z,18.90
2019-05-19T11:19:51.994Z,19.80
2019-05-19T11:22:21.081Z,19.50
2019-05-19T11:24:49.949Z,18.83
2019-05-19T11:27:19.147Z,18.43
2019-05-19T11:29:48.277Z,18.77
2019-05-19T11:32:17.380Z,21.10
2019-05-19T11:34:46.565Z,18.70
2019-05-19T11:37:15.401Z,18.97
2019-05-19T11:39:44.222Z,16.47
2019-05-19T11:42:13.361Z,16.77
2019-05-19T11:44:42.513Z,19.13
2019-05-19T11:47:11.318Z,16.90
2019-05-19T11:49:40.140Z,17.53
2019-05-19T11:52:09.218Z,15.90
2019-05-19T11:54:38.322Z,16.80
2019-05-19T11:57:07.414Z,16.30
2019-05-19T11:59:36.210Z,15.47
2019-05-19T12:02:05.158Z,16.33
2019-05-19T12:04:33.961Z,17.83
2019-05-19T12:07:02.823Z,15.83
2019-05-19T12:09:31.589Z,16.70
2019-05-19T12:12:00.517Z,18.60
2019-05-19T12:14:29.715Z,18.67
2019-05-19T12:16:58.870Z,16.50
2019-05-19T12:19:27.670Z,14.53
2019-05-19T12:21:56.475Z,15.97
2019-05-19T12:24:25.267Z,16.83
2019-05-19T12:26:54.123Z,18.57
2019-05-19T12:29:23.263Z,18.13
2019-05-19T12:31:52.092Z,21.07
2019-05-19T12:34:21.049Z,17.93
2019-05-19T12:36:49.906Z,17.10
2019-05-19T12:39:19.159Z,18.70
2019-05-19T12:41:48.045Z,16.03
2019-05-19T12:44:17.627Z,15.93
2019-05-19T12:46:46.386Z,16.43
2019-05-19T12:49:15.184Z,15.80
2019-05-19T12:51:43.971Z,15.60
2019-05-19T12:54:13.264Z,16.20
2019-05-19T12:56:42.052Z,15.43
2019-05-19T12:59:10.855Z,16.07
2019-05-19T13:01:39.774Z,15.50
2019-05-19T13:04:08.566Z,15.70
2019-05-19T13:06:37.415Z,14.90
2019-05-19T13:09:07.204Z,16.90
2019-05-19T13:11:36.336Z,17.50
2019-05-19T13:14:07.079Z,13.60
2019-05-19T13:16:36.295Z,14.53
2019-05-19T13:19:05.207Z,14.37
2019-05-19T13:21:34.146Z,15.23
2019-05-19T13:24:03.363Z,15.17
2019-05-19T13:26:32.258Z,15.30
2019-05-19T13:29:01.254Z,17.50
2019-05-19T13:31:30.155Z,15.37
2019-05-19T13:33:59.047Z,15.73
2019-05-19T13:36:27.888Z,16.07
2019-05-19T13:38:56.719Z,16.00
2019-05-19T13:41:25.913Z,15.50
2019-05-19T13:43:55.188Z,15.10
2019-05-19T13:46:24.084Z,15.20
2019-05-19T13:48:52.864Z,11.90
2019-05-19T13:51:21.702Z,13.50
2019-05-19T13:53:50.606Z,13.47
2019-05-19T13:56:19.402Z,14.27
2019-05-19T13:58:48.559Z,13.67
2019-05-19T14:01:27.977Z,14.10
2019-05-19T14:03:48.204Z,14.17
2019-05-19T14:06:16.998Z,13.80
2019-05-19T14:08:45.914Z,12.60
2019-05-19T14:11:14.811Z,11.60
2019-05-19T14:13:43.710Z,13.00
2019-05-19T14:16:12.859Z,12.03
2019-05-19T14:18:41.736Z,11.60
2019-05-19T14:21:10.521Z,12.73
2019-05-19T14:23:39.372Z,12.20
2019-05-19T14:26:08.197Z,13.63
2019-05-19T14:28:37.272Z,12.80
2019-05-19T14:31:06.445Z,13.13
2019-05-19T14:33:35.332Z,12.93
2019-05-19T14:36:04.511Z,11.93
2019-05-19T14:38:33.950Z,13.83
2019-05-19T14:41:03.273Z,12.50
2019-05-19T14:43:32.239Z,11.20
2019-05-19T14:46:01.330Z,12.00
2019-05-19T14:48:30.501Z,12.53
2019-05-19T14:50:59.309Z,10.70
2019-05-19T14:53:28.144Z,11.07
2019-05-19T14:55:57.183Z,10.83
2019-05-19T14:58:25.949Z,11.00
2019-05-19T15:00:55.369Z,11.83
2019-05-19T15:03:24.466Z,9.93
2019-05-19T15:05:53.250Z,10.10
2019-05-19T15:08:22.113Z,10.70
2019-05-19T15:10:50.908Z,10.00
2019-05-19T15:13:20.179Z,10.73
2019-05-19T15:15:49.001Z,10.23
2019-05-19T15:18:18.141Z,9.83
2019-05-19T15:20:46.943Z,10.27
2019-05-19T15:23:15.849Z,10.47
2019-05-19T15:25:44.674Z,11.67
2019-05-19T15:28:13.458Z,11.07
2019-05-19T15:30:42.623Z,11.20
2019-05-19T15:33:11.438Z,10.10
2019-05-19T15:35:40.279Z,8.87
2019-05-19T15:38:09.493Z,10.00
2019-05-19T15:40:38.753Z,8.83
2019-05-19T15:43:08.286Z,9.90
2019-05-19T15:45:37.522Z,9.53
2019-05-19T15:48:06.373Z,9.10
2019-05-19T15:50:35.495Z,10.03
2019-05-19T15:53:04.350Z,8.93
2019-05-19T15:55:34.278Z,9.50
2019-05-19T15:58:15.458Z,8.80
2019-05-19T16:00:34.234Z,8.70
2019-05-19T16:03:03.083Z,8.73
2019-05-19T16:05:31.992Z,10.70
2019-05-19T16:08:01.127Z,9.30
2019-05-19T16:10:30.444Z,9.63
2019-05-19T16:12:59.301Z,9.93
2019-05-19T16:15:28.172Z,10.70
2019-05-19T16:17:56.935Z,8.60
2019-05-19T16:20:26.062Z,11.30
2019-05-19T16:22:55.297Z,8.83
2019-05-19T16:25:24.429Z,9.40
2019-05-19T16:27:53.255Z,10.40
2019-05-19T16:30:22.615Z,10.60
2019-05-19T16:32:51.419Z,10.10
2019-05-19T16:35:20.315Z,9.80
2019-05-19T16:37:49.524Z,11.80
2019-05-19T16:40:20.290Z,8.70
2019-05-19T16:42:49.061Z,10.40
2019-05-19T16:45:18.292Z,10.13
2019-05-19T16:47:47.679Z,9.60
2019-05-19T16:50:17.202Z,9.90
2019-05-19T16:52:46.278Z,10.33
2019-05-19T16:55:26.631Z,9.40
2019-05-19T16:57:55.492Z,11.50
2019-05-19T17:00:25.785Z,11.00
2019-05-19T17:02:54.960Z,10.33
2019-05-19T17:05:23.814Z,10.30
2019-05-19T17:07:52.855Z,11.20
2019-05-19T17:10:22.260Z,9.27
2019-05-19T17:12:51.649Z,9.27
2019-05-19T17:15:21.209Z,10.07
2019-05-19T17:17:50.475Z,9.10
2019-05-19T17:20:21.212Z,9.87
2019-05-19T17:22:49.985Z,8.80
2019-05-19T17:25:19.403Z,8.23
2019-05-19T17:27:48.490Z,9.83
2019-05-19T17:30:19.482Z,9.40
2019-05-19T17:32:48.306Z,9.97
2019-05-19T17:35:17.557Z,10.40
2019-05-19T17:37:46.447Z,8.77
2019-05-19T17:40:15.678Z,9.47
2019-05-19T17:42:44.450Z,8.43
2019-05-19T17:45:14.294Z,10.80
2019-05-19T17:47:43.192Z,9.80
2019-05-19T17:50:13.947Z,10.43
2019-05-19T17:52:42.857Z,9.00
2019-05-19T17:55:11.756Z,10.10
2019-05-19T17:57:41.389Z,8.47
2019-05-19T18:00:10.503Z,9.40
2019-05-19T18:02:39.302Z,8.93
2019-05-19T18:05:08.628Z,9.30
2019-05-19T18:07:37.462Z,9.93
2019-05-19T18:10:07.246Z,8.50
2019-05-19T18:12:36.041Z,9.17
2019-05-19T18:15:05.134Z,13.90
2019-05-19T18:17:33.929Z,9.10
2019-05-19T18:20:02.786Z,11.27
2019-05-19T18:22:31.624Z,9.77
2019-05-19T18:25:00.448Z,9.97
2019-05-19T18:27:29.363Z,10.73
2019-05-19T18:29:58.588Z,9.80
2019-05-19T18:32:27.381Z,9.97
2019-05-19T18:34:56.163Z,10.23
2019-05-19T18:37:25.407Z,10.93
2019-05-19T18:39:54.340Z,10.37
2019-05-19T18:42:23.198Z,9.60
2019-05-19T18:44:52.465Z,18.83
2019-05-19T18:47:21.404Z,13.70
2019-05-19T18:49:50.212Z,10.13
2019-05-19T18:52:19.347Z,14.83
2019-05-19T18:54:50.369Z,11.37
2019-05-19T18:57:18.704Z,10.50
2019-05-19T18:59:47.984Z,11.17
2019-05-19T19:02:17.801Z,11.57
2019-05-19T19:04:46.890Z,13.10
2019-05-19T19:07:15.721Z,11.47
2019-05-19T19:09:44.794Z,10.77
2019-05-19T19:12:13.859Z,24.87
2019-05-19T19:14:42.953Z,19.33
2019-05-19T19:17:11.791Z,11.70
2019-05-19T19:19:40.892Z,11.67
2019-05-19T19:22:10.082Z,12.10
2019-05-19T19:24:38.974Z,11.67
2019-05-19T19:27:07.900Z,11.30
2019-05-19T19:29:36.740Z,14.97
2019-05-19T19:32:05.922Z,13.70
2019-05-19T19:34:34.762Z,18.57
2019-05-19T19:37:03.643Z,15.47
2019-05-19T19:39:32.466Z,14.80
2019-05-19T19:42:01.585Z,17.37
2019-05-19T19:44:30.539Z,16.60
2019-05-19T19:46:59.934Z,15.13
2019-05-19T19:49:28.773Z,14.73
2019-05-19T19:51:57.931Z,15.77
2019-05-19T19:54:26.791Z,14.87
2019-05-19T19:56:55.853Z,13.73
2019-05-19T19:59:24.881Z,14.77
2019-05-19T20:01:53.769Z,20.70
2019-05-19T20:04:23.107Z,13.37
2019-05-19T20:06:52.141Z,13.50
2019-05-19T20:09:21.466Z,12.77
2019-05-19T20:11:50.322Z,13.13
2019-05-19T20:14:19.122Z,12.87
2019-05-19T20:16:47.913Z,16.67
2019-05-19T20:19:16.914Z,13.43
2019-05-19T20:21:45.677Z,14.73
2019-05-19T20:24:14.774Z,12.97
2019-05-19T20:26:43.600Z,11.23
2019-05-19T20:29:12.445Z,11.90
2019-05-19T20:31:41.484Z,17.33
2019-05-19T20:34:10.489Z,12.90
2019-05-19T20:36:39.831Z,13.23
2019-05-19T20:39:09.197Z,13.67
2019-05-19T20:41:38.278Z,13.00
2019-05-19T20:44:07.465Z,13.27
2019-05-19T20:46:36.677Z,14.00
2019-05-19T20:49:05.550Z,14.20
2019-05-19T20:51:34.652Z,14.90
2019-05-19T20:54:03.527Z,16.10
2019-05-19T20:56:32.356Z,17.47
2019-05-19T20:59:01.932Z,15.77
2019-05-19T21:01:30.775Z,14.90
2019-05-19T21:03:59.838Z,14.57
2019-05-19T21:06:28.597Z,18.60
2019-05-19T21:08:57.430Z,14.23
2019-05-19T21:11:26.224Z,15.60
2019-05-19T21:13:55.556Z,15.20
2019-05-19T21:16:24.602Z,16.53
2019-05-19T21:18:53.408Z,15.20
2019-05-19T21:21:22.440Z,16.63
2019-05-19T21:23:51.589Z,15.70
2019-05-19T21:26:20.454Z,14.27
2019-05-19T21:28:49.286Z,16.43
2019-05-19T21:31:18.070Z,13.27
2019-05-19T21:33:47.494Z,14.90
2019-05-19T21:36:16.265Z,12.50
2019-05-19T21:38:45.339Z,13.43
2019-05-19T21:41:14.539Z,13.30
2019-05-19T21:43:43.498Z,12.97
2019-05-19T21:46:12.269Z,15.27
2019-05-19T21:48:41.273Z,16.17
2019-05-19T21:51:10.863Z,13.90
2019-05-19T21:53:39.639Z,14.50
2019-05-19T21:56:08.454Z,13.20
2019-05-19T21:58:37.508Z,13.90
2019-05-19T22:01:20.775Z,15.70
2019-05-19T22:03:37.029Z,14.13
2019-05-19T22:06:06.129Z,13.13
2019-05-19T22:08:34.898Z,13.27
2019-05-19T22:11:04.603Z,14.50
2019-05-19T22:13:33.630Z,14.50
2019-05-19T22:16:12.183Z,13.70
2019-05-19T22:18:33.455Z,15.10
2019-05-19T22:21:02.387Z,15.73
2019-05-19T22:23:31.478Z,14.20
2019-05-19T22:26:00.271Z,14.63
2019-05-19T22:28:29.117Z,18.20
2019-05-19T22:30:57.903Z,14.47
2019-05-19T22:33:26.772Z,14.57
2019-05-19T22:35:55.544Z,13.87
2019-05-19T22:38:24.314Z,13.80
2019-05-19T22:40:53.378Z,14.00
2019-05-19T22:43:22.476Z,14.97
2019-05-19T22:45:51.351Z,15.83
2019-05-19T22:48:20.156Z,13.73
2019-05-19T22:50:48.952Z,17.00
2019-05-19T22:53:18.068Z,20.43
2019-05-19T22:55:46.922Z,15.40
2019-05-19T22:58:16.039Z,18.63
2019-05-19T23:00:44.820Z,14.93
2019-05-19T23:03:13.923Z,18.00
2019-05-19T23:05:42.694Z,13.73
2019-05-19T23:08:11.809Z,15.57
2019-05-19T23:10:40.599Z,14.47
2019-05-19T23:13:09.805Z,18.77
2019-05-19T23:15:38.988Z,16.07
2019-05-19T23:18:07.759Z,18.07
2019-05-19T23:20:36.535Z,17.03
2019-05-19T23:23:05.342Z,19.43
2019-05-19T23:25:34.166Z,16.50
2019-05-19T23:28:02.983Z,16.50
2019-05-19T23:30:32.071Z,14.27
2019-05-19T23:33:01.139Z,17.00
2019-05-19T23:35:29.918Z,16.17
2019-05-19T23:37:58.857Z,15.83
2019-05-19T23:40:27.718Z,18.47
2019-05-19T23:42:56.906Z,17.20
2019-05-19T23:45:25.706Z,16.00
2019-05-19T23:47:54.466Z,19.00
2019-05-19T23:50:23.536Z,15.90
2019-05-19T23:52:52.404Z,20.10
2019-05-19T23:55:21.200Z,19.17
2019-05-19T23:57:49.864Z,16.70
